createdAt,value
2019-03-13T00:03:50.010Z,85.80
2019-03-13T00:13:55.471Z,85.00
2019-03-13T00:24:00.910Z,84.50
2019-03-13T00:34:06.464Z,81.90
2019-03-13T00:44:11.890Z,81.10
2019-03-13T00:54:17.360Z,80.40
2019-03-13T01:04:24.354Z,79.80
2019-03-13T01:14:29.760Z,78.80
2019-03-13T01:24:35.286Z,77.10
2019-03-13T01:34:43.332Z,75.80
2019-03-13T01:44:48.752Z,74.70
2019-03-13T01:54:54.163Z,74.10
2019-03-13T02:04:59.599Z,74.20
2019-03-13T02:15:08.229Z,71.50
2019-03-13T02:25:17.930Z,71.00
2019-03-13T02:35:23.340Z,69.90
2019-03-13T02:45:28.763Z,69.10
2019-03-13T02:55:34.226Z,68.80
2019-03-13T03:05:39.650Z,67.40
2019-03-13T03:15:45.116Z,67.20
2019-03-13T03:25:50.639Z,68.60
2019-03-13T03:35:56.071Z,68.00
2019-03-13T03:46:01.470Z,68.40
2019-03-13T03:56:06.986Z,67.40
2019-03-13T04:06:12.510Z,65.20
2019-03-13T04:16:17.943Z,65.20
2019-03-13T04:26:23.480Z,68.10
2019-03-13T04:36:28.923Z,69.10
2019-03-13T04:46:34.329Z,65.10
2019-03-13T04:56:39.865Z,63.50
2019-03-13T05:06:45.279Z,63.30
2019-03-13T05:16:50.725Z,63.50
2019-03-13T05:26:56.231Z,62.40
2019-03-13T05:37:01.758Z,60.40
2019-03-13T05:47:19.758Z,58.60
2019-03-13T05:57:25.239Z,59.10
2019-03-13T06:07:30.766Z,58.20
2019-03-13T06:17:36.198Z,58.40
2019-03-13T06:27:41.643Z,59.10
2019-03-13T06:37:47.110Z,57.60
2019-03-13T06:47:52.558Z,58.40
2019-03-13T06:57:58.232Z,58.40
2019-03-13T07:08:05.244Z,58.10
2019-03-13T07:18:18.152Z,60.10
2019-03-13T07:28:40.275Z,60.50
2019-03-13T07:38:47.312Z,63.30
2019-03-13T07:49:06.222Z,61.00
2019-03-13T07:59:16.316Z,62.50
2019-03-13T08:09:32.600Z,62.20
2019-03-13T08:19:54.979Z,61.80
2019-03-13T08:30:08.047Z,61.00
2019-03-13T08:40:15.435Z,63.00
2019-03-13T08:50:28.508Z,61.70
2019-03-13T09:00:38.314Z,63.70
2019-03-13T09:10:57.304Z,66.20
2019-03-13T09:21:07.454Z,70.20
2019-03-13T09:31:14.510Z,78.50
2019-03-13T09:41:27.351Z,81.10
2019-03-13T09:51:40.285Z,82.40
2019-03-13T10:01:59.408Z,83.70
2019-03-13T10:12:18.383Z,85.00
2019-03-13T10:22:28.322Z,86.20
2019-03-13T10:32:35.404Z,83.40
2019-03-13T10:42:42.444Z,80.30
2019-03-13T10:52:49.480Z,77.40
2019-03-13T11:03:12.554Z,72.90
2019-03-13T11:13:26.521Z,72.60
2019-03-13T11:23:36.728Z,67.60
2019-03-13T11:33:47.088Z,66.50
2019-03-13T11:43:56.780Z,68.50
2019-03-13T11:54:15.758Z,69.20
2019-03-13T12:04:22.817Z,66.40
2019-03-13T12:14:32.559Z,66.60
2019-03-13T12:24:39.609Z,64.10
2019-03-13T12:34:49.635Z,61.20
2019-03-13T12:45:08.634Z,60.50
2019-03-13T12:55:15.753Z,58.50
2019-03-13T13:05:35.094Z,58.00
2019-03-13T13:15:42.146Z,51.30
2019-03-13T13:25:47.662Z,49.50
2019-03-13T13:35:53.101Z,54.10
2019-03-13T13:46:07.438Z,55.40
2019-03-13T13:56:12.871Z,54.10
2019-03-13T14:06:18.366Z,50.70
2019-03-13T14:16:31.561Z,54.60
2019-03-13T14:26:37.065Z,55.60
2019-03-13T14:36:42.495Z,58.00
2019-03-13T14:46:47.951Z,57.70
2019-03-13T14:56:53.413Z,55.40
2019-03-13T15:06:58.849Z,53.00
2019-03-13T15:17:04.406Z,56.70
2019-03-13T15:27:09.878Z,56.30
2019-03-13T15:37:15.429Z,57.70
2019-03-13T15:47:21.524Z,57.40
2019-03-13T15:57:32.996Z,58.30
2019-03-13T16:07:38.762Z,54.90
2019-03-13T16:17:45.036Z,54.80
2019-03-13T16:27:52.181Z,55.60
2019-03-13T16:37:57.797Z,57.50
2019-03-13T16:48:03.418Z,58.60
2019-03-13T16:58:08.917Z,59.80
2019-03-13T17:08:14.414Z,61.80
2019-03-13T17:18:19.936Z,64.30
2019-03-13T17:28:26.362Z,67.30
2019-03-13T17:38:32.026Z,69.30
2019-03-13T17:48:37.672Z,69.20
2019-03-13T17:58:43.183Z,70.90
2019-03-13T18:08:48.831Z,69.90
2019-03-13T18:18:54.400Z,73.80
2019-03-13T18:29:00.073Z,78.50
2019-03-13T18:39:08.626Z,85.30
2019-03-13T18:49:14.913Z,86.10
2019-03-13T18:59:31.293Z,84.20
2019-03-13T19:09:36.956Z,85.00
2019-03-13T19:19:43.837Z,88.10
2019-03-13T19:29:50.181Z,88.70
2019-03-13T19:39:57.267Z,88.60
2019-03-13T19:50:03.717Z,91.00
2019-03-13T20:00:15.166Z,90.90
2019-03-13T20:10:27.872Z,91.30
2019-03-13T20:20:35.148Z,90.80
2019-03-13T20:30:41.307Z,91.10
2019-03-13T20:40:52.555Z,90.80
2019-03-13T20:50:59.802Z,91.10
2019-03-13T21:01:05.746Z,91.00
2019-03-13T21:11:12.753Z,90.70
2019-03-13T21:21:19.464Z,91.50
2019-03-13T21:31:28.313Z,91.40
2019-03-13T21:41:35.638Z,91.00
2019-03-13T21:51:41.952Z,90.50
2019-03-13T22:01:47.942Z,90.30
2019-03-13T22:11:53.854Z,90.60
2019-03-13T22:21:59.371Z,90.40
2019-03-13T22:32:04.954Z,90.10
2019-03-13T22:42:12.360Z,90.10
2019-03-13T22:52:17.963Z,89.50
2019-03-13T23:02:23.388Z,90.00
2019-03-13T23:12:30.414Z,89.80
2019-03-13T23:22:36.035Z,90.00
2019-03-13T23:32:41.483Z,89.70
2019-03-13T23:42:46.925Z,89.60
2019-03-13T23:52:52.384Z,89.60
